createdAt,value
2018-04-07T00:01:59.311Z,3.67
2018-04-07T00:04:30.110Z,3.47
2018-04-07T00:07:00.921Z,3.33
2018-04-07T00:09:31.730Z,3.14
2018-04-07T00:12:02.559Z,3.15
2018-04-07T00:14:33.352Z,3.13
2018-04-07T00:17:04.150Z,3.09
2018-04-07T00:19:34.988Z,3.12
2018-04-07T00:22:05.821Z,3.01
2018-04-07T00:24:36.670Z,2.94
2018-04-07T00:27:07.588Z,2.87
2018-04-07T00:29:38.378Z,2.70
2018-04-07T00:32:09.199Z,2.69
2018-04-07T00:34:39.995Z,2.55
2018-04-07T00:37:10.838Z,2.45
2018-04-07T00:39:41.646Z,2.43
2018-04-07T00:42:12.461Z,2.39
2018-04-07T00:44:43.249Z,2.52
2018-04-07T00:47:14.029Z,2.52
2018-04-07T00:49:44.804Z,2.55
2018-04-07T00:52:15.593Z,2.57
2018-04-07T00:54:46.381Z,2.44
2018-04-07T00:57:17.222Z,2.43
2018-04-07T00:59:48.005Z,2.39
2018-04-07T01:02:18.817Z,2.29
2018-04-07T01:04:49.610Z,2.20
2018-04-07T01:07:20.403Z,2.30
2018-04-07T01:09:51.177Z,2.31
2018-04-07T01:12:21.997Z,2.21
2018-04-07T01:14:52.764Z,2.15
2018-04-07T01:17:23.679Z,2.10
2018-04-07T01:19:54.462Z,2.10
2018-04-07T01:22:25.278Z,2.09
2018-04-07T01:24:56.061Z,2.09
2018-04-07T01:27:26.977Z,1.98
2018-04-07T01:29:57.783Z,1.98
2018-04-07T01:32:28.586Z,1.93
2018-04-07T01:34:59.373Z,1.81
2018-04-07T01:37:30.177Z,1.76
2018-04-07T01:40:01.003Z,1.74
2018-04-07T01:42:31.850Z,1.84
2018-04-07T01:45:02.652Z,1.98
2018-04-07T01:47:33.481Z,2.03
2018-04-07T01:50:04.316Z,2.10
2018-04-07T01:52:35.095Z,2.11
2018-04-07T01:55:05.857Z,2.05
2018-04-07T01:57:36.677Z,2.17
2018-04-07T02:00:07.481Z,2.06
2018-04-07T02:02:38.278Z,1.82
2018-04-07T02:05:09.096Z,1.69
2018-04-07T02:07:39.932Z,1.59
2018-04-07T02:10:10.742Z,1.36
2018-04-07T02:12:41.540Z,1.27
2018-04-07T02:15:12.347Z,1.26
2018-04-07T02:17:43.158Z,1.31
2018-04-07T02:20:13.943Z,1.38
2018-04-07T02:22:44.745Z,1.41
2018-04-07T02:25:15.530Z,1.35
2018-04-07T02:27:46.346Z,1.39
2018-04-07T02:30:17.154Z,1.30
2018-04-07T02:32:47.982Z,1.11
2018-04-07T02:35:18.792Z,1.14
2018-04-07T02:37:49.558Z,1.13
2018-04-07T02:40:20.351Z,1.16
2018-04-07T02:42:51.166Z,1.10
2018-04-07T02:45:21.998Z,1.10
2018-04-07T02:47:52.813Z,1.06
2018-04-07T02:50:23.643Z,1.11
2018-04-07T02:52:54.410Z,1.19
2018-04-07T02:55:25.212Z,1.21
2018-04-07T02:57:56.045Z,1.27
2018-04-07T03:00:26.815Z,1.34
2018-04-07T03:02:57.619Z,1.15
2018-04-07T03:05:28.410Z,1.02
2018-04-07T03:07:59.247Z,0.94
2018-04-07T03:10:30.062Z,0.96
2018-04-07T03:13:00.852Z,1.11
2018-04-07T03:15:31.654Z,1.09
2018-04-07T03:18:02.486Z,0.99
2018-04-07T03:20:33.273Z,1.04
2018-04-07T03:23:04.096Z,1.14
2018-04-07T03:25:34.897Z,1.11
2018-04-07T03:28:05.708Z,1.08
2018-04-07T03:30:36.518Z,0.96
2018-04-07T03:33:07.318Z,0.85
2018-04-07T03:35:38.097Z,0.91
2018-04-07T03:38:08.892Z,0.89
2018-04-07T03:40:39.685Z,0.84
2018-04-07T03:43:10.525Z,0.94
2018-04-07T03:45:41.357Z,0.82
2018-04-07T03:48:12.197Z,0.75
2018-04-07T03:50:43.008Z,0.65
2018-04-07T03:53:13.801Z,0.61
2018-04-07T03:55:44.586Z,0.60
2018-04-07T03:58:15.373Z,0.56
2018-04-07T04:00:46.172Z,0.51
2018-04-07T04:03:17.010Z,0.61
2018-04-07T04:05:47.809Z,0.62
2018-04-07T04:08:18.608Z,0.60
2018-04-07T04:10:49.376Z,0.58
2018-04-07T04:13:20.206Z,0.55
2018-04-07T04:15:50.997Z,0.61
2018-04-07T04:18:21.805Z,0.55
2018-04-07T04:20:52.588Z,0.50
2018-04-07T04:23:23.414Z,0.56
2018-04-07T04:25:54.213Z,0.67
2018-04-07T04:28:25.039Z,0.54
2018-04-07T04:30:55.813Z,0.50
2018-04-07T04:33:26.617Z,0.46
2018-04-07T04:35:57.431Z,0.27
2018-04-07T04:38:28.269Z,0.23
2018-04-07T04:40:59.054Z,0.47
2018-04-07T04:43:29.891Z,0.45
2018-04-07T04:46:00.694Z,0.60
2018-04-07T04:48:31.492Z,0.61
2018-04-07T04:51:02.296Z,0.65
2018-04-07T04:53:33.109Z,0.76
2018-04-07T04:56:03.961Z,0.87
2018-04-07T04:58:34.776Z,0.77
2018-04-07T05:01:05.582Z,0.74
2018-04-07T05:03:36.428Z,0.75
2018-04-07T05:06:07.221Z,0.82
2018-04-07T05:08:38.038Z,0.89
2018-04-07T05:11:08.861Z,1.03
2018-04-07T05:13:39.745Z,1.09
2018-04-07T05:16:10.582Z,1.01
2018-04-07T05:18:41.407Z,0.97
2018-04-07T05:21:12.230Z,0.99
2018-04-07T05:23:43.037Z,1.08
2018-04-07T05:26:13.850Z,1.25
2018-04-07T05:28:44.648Z,1.36
2018-04-07T05:31:15.429Z,1.39
2018-04-07T05:33:46.228Z,1.44
2018-04-07T05:36:17.041Z,1.58
2018-04-07T05:38:47.849Z,1.75
2018-04-07T05:41:18.670Z,1.81
2018-04-07T05:43:49.474Z,1.90
2018-04-07T05:46:20.258Z,1.97
2018-04-07T05:48:51.126Z,2.06
2018-04-07T05:51:21.926Z,2.27
2018-04-07T05:53:52.745Z,2.53
2018-04-07T05:56:23.533Z,2.78
2018-04-07T05:58:54.315Z,3.72
2018-04-07T06:01:25.094Z,5.51
2018-04-07T06:03:55.892Z,6.81
2018-04-07T06:06:26.666Z,6.30
2018-04-07T06:08:57.488Z,5.13
2018-04-07T06:11:28.277Z,4.58
2018-04-07T06:13:59.076Z,4.47
2018-04-07T06:16:29.861Z,4.30
2018-04-07T06:19:00.684Z,4.28
2018-04-07T06:21:31.500Z,4.22
2018-04-07T06:24:02.339Z,4.26
2018-04-07T06:26:40.283Z,4.37
2018-04-07T06:29:11.098Z,4.47
2018-04-07T06:31:41.949Z,4.63
2018-04-07T06:34:12.788Z,4.80
2018-04-07T06:36:43.570Z,5.08
2018-04-07T06:39:14.359Z,5.15
2018-04-07T06:41:45.191Z,6.63
2018-04-07T06:44:16.017Z,8.57
2018-04-07T06:46:46.806Z,9.57
2018-04-07T06:49:17.649Z,10.58
2018-04-07T06:51:48.486Z,11.52
2018-04-07T06:54:19.312Z,12.79
2018-04-07T06:56:50.106Z,13.71
2018-04-07T06:59:20.945Z,12.69
2018-04-07T07:01:51.771Z,13.63
2018-04-07T07:04:22.526Z,14.27
2018-04-07T07:06:53.353Z,16.11
2018-04-07T07:09:24.168Z,15.86
2018-04-07T07:11:54.965Z,15.65
2018-04-07T07:14:25.762Z,15.57
2018-04-07T07:16:56.574Z,15.32
2018-04-07T07:19:27.371Z,17.19
2018-04-07T07:21:58.172Z,17.60
2018-04-07T07:24:29.001Z,17.35
2018-04-07T07:26:59.794Z,17.48
2018-04-07T07:29:30.603Z,17.16
2018-04-07T07:32:01.386Z,17.31
2018-04-07T07:34:32.168Z,17.03
2018-04-07T07:37:02.950Z,17.71
2018-04-07T07:39:33.760Z,17.39
2018-04-07T07:42:04.598Z,17.12
2018-04-07T07:44:35.364Z,17.27
2018-04-07T07:47:06.128Z,17.94
2018-04-07T07:49:36.928Z,17.87
2018-04-07T07:52:07.730Z,17.80
2018-04-07T07:54:38.541Z,17.95
2018-04-07T07:57:09.341Z,18.35
2018-04-07T07:59:40.157Z,18.96
2018-04-07T08:02:10.925Z,19.33
2018-04-07T08:04:41.746Z,19.21
2018-04-07T08:07:12.530Z,19.22
2018-04-07T08:09:43.380Z,19.27
2018-04-07T08:12:14.202Z,18.78
2018-04-07T08:14:45.036Z,19.09
2018-04-07T08:17:15.822Z,19.27
2018-04-07T08:19:46.685Z,19.23
2018-04-07T08:22:17.494Z,18.93
2018-04-07T08:24:48.297Z,18.16
2018-04-07T08:27:19.132Z,17.46
2018-04-07T08:29:49.929Z,18.02
2018-04-07T08:32:20.738Z,17.02
2018-04-07T08:34:51.601Z,16.58
2018-04-07T08:37:22.410Z,16.74
2018-04-07T08:39:53.218Z,17.11
2018-04-07T08:42:24.009Z,17.93
2018-04-07T08:44:54.897Z,17.10
2018-04-07T08:47:25.689Z,17.50
2018-04-07T08:49:56.496Z,17.49
2018-04-07T08:52:27.294Z,16.52
2018-04-07T08:54:58.142Z,16.12
2018-04-07T08:57:29.637Z,16.21
2018-04-07T09:00:00.447Z,16.73
2018-04-07T09:02:31.237Z,17.14
2018-04-07T09:05:02.029Z,16.80
2018-04-07T09:07:32.829Z,17.25
2018-04-07T09:10:03.671Z,17.61
2018-04-07T09:12:35.033Z,16.70
2018-04-07T09:15:05.849Z,16.44
2018-04-07T09:17:36.670Z,17.09
2018-04-07T09:20:07.476Z,17.58
2018-04-07T09:22:38.285Z,17.80
2018-04-07T09:25:09.149Z,16.80
2018-04-07T09:27:39.914Z,16.64
2018-04-07T09:30:10.738Z,17.49
2018-04-07T09:32:41.517Z,18.07
2018-04-07T09:35:12.316Z,17.51
2018-04-07T09:37:43.092Z,18.12
2018-04-07T09:40:13.900Z,17.89
2018-04-07T09:42:44.677Z,18.98
2018-04-07T09:45:15.539Z,19.24
2018-04-07T09:47:46.339Z,19.30
2018-04-07T09:50:17.151Z,18.69
2018-04-07T09:52:47.924Z,17.85
2018-04-07T09:55:18.722Z,18.10
2018-04-07T09:57:49.520Z,17.15
2018-04-07T10:00:20.344Z,18.10
2018-04-07T10:02:57.166Z,18.80
2018-04-07T10:05:28.005Z,18.12
2018-04-07T10:07:58.770Z,18.28
2018-04-07T10:10:29.575Z,18.32
2018-04-07T10:13:00.351Z,18.58
2018-04-07T10:15:31.148Z,18.37
2018-04-07T10:18:01.979Z,18.66
2018-04-07T10:20:32.771Z,19.37
2018-04-07T10:23:03.571Z,19.90
2018-04-07T10:25:34.391Z,19.57
2018-04-07T10:28:05.158Z,20.15
2018-04-07T10:30:35.961Z,19.34
2018-04-07T10:33:06.733Z,20.27
2018-04-07T10:35:37.557Z,19.49
2018-04-07T10:38:08.341Z,19.19
2018-04-07T10:40:39.123Z,20.29
2018-04-07T10:43:09.935Z,19.74
2018-04-07T10:45:40.779Z,20.93
2018-04-07T10:48:11.544Z,20.10
2018-04-07T10:50:42.362Z,19.78
2018-04-07T10:53:13.148Z,19.87
2018-04-07T10:55:43.963Z,19.78
2018-04-07T10:58:14.773Z,20.42
2018-04-07T11:00:45.560Z,20.63
2018-04-07T11:03:16.341Z,20.09
2018-04-07T11:05:47.155Z,19.42
2018-04-07T11:08:17.926Z,19.20
2018-04-07T11:10:48.741Z,19.72
2018-04-07T11:13:19.505Z,20.80
2018-04-07T11:15:50.338Z,21.22
2018-04-07T11:18:21.148Z,21.52
2018-04-07T11:20:51.969Z,20.78
2018-04-07T11:23:22.820Z,20.86
2018-04-07T11:25:53.643Z,20.89
2018-04-07T11:28:24.437Z,20.63
2018-04-07T11:30:55.259Z,20.97
2018-04-07T11:33:26.064Z,20.87
2018-04-07T11:35:56.874Z,20.68
2018-04-07T11:38:27.654Z,20.67
2018-04-07T11:40:58.475Z,21.01
2018-04-07T11:43:29.289Z,21.68
2018-04-07T11:46:00.103Z,21.64
2018-04-07T11:48:30.940Z,20.72
2018-04-07T11:51:01.782Z,20.52
2018-04-07T11:53:32.550Z,20.88
2018-04-07T11:56:03.385Z,20.79
2018-04-07T11:58:34.208Z,20.13
2018-04-07T12:01:05.046Z,20.81
2018-04-07T12:03:35.881Z,21.83
2018-04-07T12:06:06.717Z,21.80
2018-04-07T12:08:37.520Z,21.45
2018-04-07T12:11:08.340Z,21.06
2018-04-07T12:13:39.133Z,21.90
2018-04-07T12:16:09.968Z,22.15
2018-04-07T12:18:40.774Z,22.41
2018-04-07T12:21:11.648Z,22.30
2018-04-07T12:23:42.482Z,22.08
2018-04-07T12:26:13.318Z,22.13
2018-04-07T12:28:44.112Z,21.31
2018-04-07T12:31:14.918Z,22.17
2018-04-07T12:33:45.751Z,21.76
2018-04-07T12:36:16.635Z,22.22
2018-04-07T12:38:47.497Z,21.92
2018-04-07T12:41:18.335Z,22.29
2018-04-07T12:43:49.195Z,22.09
2018-04-07T12:46:20.041Z,21.41
2018-04-07T12:48:50.852Z,21.83
2018-04-07T12:51:21.690Z,22.47
2018-04-07T12:53:52.525Z,22.09
2018-04-07T12:56:23.359Z,22.31
2018-04-07T12:58:54.206Z,22.83
2018-04-07T13:01:25.025Z,22.81
2018-04-07T13:03:55.880Z,23.53
2018-04-07T13:06:26.702Z,23.20
2018-04-07T13:08:57.514Z,24.25
2018-04-07T13:11:28.368Z,25.62
2018-04-07T13:13:59.210Z,24.97
2018-04-07T13:16:30.053Z,25.66
2018-04-07T13:19:00.852Z,26.33
2018-04-07T13:21:31.670Z,25.18
2018-04-07T13:24:02.482Z,25.53
2018-04-07T13:26:33.298Z,26.37
2018-04-07T13:29:04.078Z,25.87
2018-04-07T13:31:34.889Z,27.34
2018-04-07T13:34:05.769Z,26.11
2018-04-07T13:36:36.626Z,25.33
2018-04-07T13:39:07.418Z,26.08
2018-04-07T13:41:38.242Z,27.61
2018-04-07T13:44:09.087Z,28.09
2018-04-07T13:46:39.856Z,27.28
2018-04-07T13:49:10.642Z,25.85
2018-04-07T13:51:41.472Z,26.90
2018-04-07T13:54:12.276Z,27.02
2018-04-07T13:56:43.114Z,26.66
2018-04-07T13:59:13.953Z,26.67
2018-04-07T14:01:44.790Z,25.87
2018-04-07T14:04:15.590Z,26.45
2018-04-07T14:06:46.414Z,26.64
2018-04-07T14:09:17.209Z,27.28
2018-04-07T14:11:48.037Z,27.61
2018-04-07T14:14:18.840Z,26.41
2018-04-07T14:16:49.710Z,25.98
2018-04-07T14:19:20.507Z,27.48
2018-04-07T14:21:51.301Z,26.89
2018-04-07T14:24:22.090Z,27.08
2018-04-07T14:26:52.923Z,27.68
2018-04-07T14:29:23.716Z,28.33
2018-04-07T14:31:54.588Z,28.13
2018-04-07T14:34:25.369Z,26.56
2018-04-07T14:36:56.187Z,25.57
2018-04-07T14:39:26.993Z,25.75
2018-04-07T14:41:57.791Z,25.95
2018-04-07T14:44:28.612Z,26.08
2018-04-07T14:46:59.412Z,26.30
2018-04-07T14:49:30.222Z,26.70
2018-04-07T14:52:01.014Z,26.71
2018-04-07T14:54:31.817Z,26.83
2018-04-07T14:57:02.677Z,26.40
2018-04-07T14:59:33.480Z,26.49
2018-04-07T15:02:04.288Z,26.55
2018-04-07T15:04:35.049Z,25.26
2018-04-07T15:07:05.853Z,25.83
2018-04-07T15:09:36.643Z,25.33
2018-04-07T15:12:07.457Z,25.79
2018-04-07T15:14:38.251Z,25.59
2018-04-07T15:17:09.059Z,25.66
2018-04-07T15:19:39.884Z,24.71
2018-04-07T15:22:10.707Z,25.33
2018-04-07T15:24:41.497Z,26.44
2018-04-07T15:27:12.311Z,26.23
2018-04-07T15:29:43.093Z,26.48
2018-04-07T15:32:13.917Z,26.79
2018-04-07T15:34:44.787Z,26.89
2018-04-07T15:37:15.673Z,25.85
2018-04-07T15:39:47.308Z,25.99
2018-04-07T15:42:18.134Z,24.96
2018-04-07T15:44:48.932Z,24.52
2018-04-07T15:47:19.783Z,24.48
2018-04-07T15:49:50.646Z,23.95
2018-04-07T15:52:21.492Z,23.31
2018-04-07T15:54:52.321Z,22.64
2018-04-07T15:57:23.150Z,22.14
2018-04-07T15:59:53.955Z,21.95
2018-04-07T16:02:24.922Z,21.87
2018-04-07T16:04:55.829Z,21.73
2018-04-07T16:07:26.657Z,21.39
2018-04-07T16:09:57.466Z,21.15
2018-04-07T16:12:28.311Z,21.13
2018-04-07T16:14:59.104Z,20.97
2018-04-07T16:17:30.025Z,21.05
2018-04-07T16:20:00.844Z,20.98
2018-04-07T16:25:29.290Z,20.74
2018-04-07T16:28:00.186Z,20.63
2018-04-07T16:33:18.148Z,20.49
2018-04-07T16:38:45.414Z,20.51
2018-04-07T16:41:16.554Z,20.38
2018-04-07T16:43:47.442Z,20.24
2018-04-07T16:46:18.241Z,20.28
2018-04-07T16:48:49.064Z,20.27
2018-04-07T16:51:19.894Z,20.15
2018-04-07T16:53:50.725Z,20.15
2018-04-07T16:56:21.521Z,20.01
2018-04-07T16:58:52.362Z,19.86
2018-04-07T17:01:23.210Z,19.81
2018-04-07T17:03:54.039Z,19.67
2018-04-07T17:06:25.843Z,19.46
2018-04-07T17:08:56.706Z,19.40
2018-04-07T17:11:27.526Z,19.40
2018-04-07T17:13:58.387Z,19.16
2018-04-07T17:16:29.174Z,19.18
2018-04-07T17:18:59.987Z,19.06
2018-04-07T17:21:30.867Z,18.94
2018-04-07T17:24:01.705Z,18.73
2018-04-07T17:26:32.560Z,18.56
2018-04-07T17:32:00.618Z,18.21
2018-04-07T17:34:31.441Z,18.09
2018-04-07T17:37:02.329Z,17.82
2018-04-07T17:39:33.136Z,17.69
2018-04-07T17:42:04.050Z,17.61
2018-04-07T17:44:34.844Z,17.55
2018-04-07T17:47:05.606Z,17.43
2018-04-07T17:49:43.605Z,17.39
2018-04-07T17:52:07.302Z,17.28
2018-04-07T17:54:38.142Z,16.98
2018-04-07T17:57:09.031Z,16.86
2018-04-07T17:59:39.833Z,16.72
2018-04-07T18:02:10.808Z,16.57
2018-04-07T18:04:41.962Z,16.57
2018-04-07T18:07:12.740Z,16.44
2018-04-07T18:09:43.584Z,16.24
2018-04-07T18:12:14.471Z,15.96
2018-04-07T18:14:45.301Z,15.77
2018-04-07T18:17:16.154Z,15.67
2018-04-07T18:19:47.973Z,15.55
2018-04-07T18:22:18.911Z,15.53
2018-04-07T18:24:49.752Z,15.45
2018-04-07T18:27:20.567Z,15.10
2018-04-07T18:29:51.370Z,14.98
2018-04-07T18:32:22.212Z,14.86
2018-04-07T18:34:53.044Z,14.98
2018-04-07T18:37:23.855Z,14.84
2018-04-07T18:39:54.664Z,14.66
2018-04-07T18:42:25.474Z,14.65
2018-04-07T18:44:56.310Z,14.63
2018-04-07T18:47:27.099Z,14.57
2018-04-07T18:49:58.008Z,14.48
2018-04-07T18:52:33.471Z,14.36
2018-04-07T18:55:04.308Z,14.34
2018-04-07T18:57:35.100Z,14.15
2018-04-07T19:00:05.894Z,13.95
2018-04-07T19:02:36.694Z,13.80
2018-04-07T19:05:07.533Z,13.91
2018-04-07T19:07:38.397Z,13.65
2018-04-07T19:10:09.261Z,13.68
2018-04-07T19:12:40.102Z,13.63
2018-04-07T19:15:10.898Z,13.49
2018-04-07T19:17:41.713Z,13.57
2018-04-07T19:20:12.533Z,13.68
2018-04-07T19:22:43.316Z,13.63
2018-04-07T19:25:14.690Z,13.70
2018-04-07T19:27:45.471Z,13.81
2018-04-07T19:30:16.244Z,14.17
2018-04-07T19:32:47.079Z,14.18
2018-04-07T19:35:17.914Z,14.37
2018-04-07T19:37:48.953Z,14.48
2018-04-07T19:40:19.772Z,14.66
2018-04-07T19:42:50.647Z,14.63
2018-04-07T19:45:21.448Z,14.66
2018-04-07T19:47:52.217Z,14.51
2018-04-07T19:50:23.050Z,14.37
2018-04-07T19:52:53.887Z,14.14
2018-04-07T19:55:24.673Z,14.00
2018-04-07T19:57:55.528Z,14.01
2018-04-07T20:00:26.349Z,13.93
2018-04-07T20:02:57.142Z,13.93
2018-04-07T20:05:27.941Z,13.79
2018-04-07T20:07:58.846Z,13.66
2018-04-07T20:10:29.662Z,13.62
2018-04-07T20:13:00.521Z,13.43
2018-04-07T20:15:31.356Z,13.42
2018-04-07T20:18:02.158Z,13.31
2018-04-07T20:20:33.035Z,13.14
2018-04-07T20:23:03.850Z,13.18
2018-04-07T20:25:34.655Z,13.08
2018-04-07T20:28:05.433Z,13.02
2018-04-07T20:30:36.226Z,13.14
2018-04-07T20:33:07.032Z,12.85
2018-04-07T20:35:37.849Z,12.78
2018-04-07T20:38:08.693Z,12.65
2018-04-07T20:40:39.526Z,12.66
2018-04-07T20:43:13.253Z,12.59
2018-04-07T20:45:44.105Z,12.67
2018-04-07T20:48:14.927Z,12.51
2018-04-07T20:50:45.781Z,12.43
2018-04-07T20:53:16.570Z,12.36
2018-04-07T20:55:47.385Z,12.29
2018-04-07T20:58:18.197Z,12.17
2018-04-07T21:00:49.029Z,12.11
2018-04-07T21:03:19.806Z,11.98
2018-04-07T21:05:50.622Z,11.88
2018-04-07T21:08:21.438Z,11.90
2018-04-07T21:10:52.296Z,11.98
2018-04-07T21:13:23.084Z,11.93
2018-04-07T21:15:53.922Z,11.63
2018-04-07T21:18:24.734Z,11.49
2018-04-07T21:20:55.540Z,11.32
2018-04-07T21:23:26.324Z,11.21
2018-04-07T21:25:57.125Z,11.05
2018-04-07T21:28:27.921Z,11.12
2018-04-07T21:30:58.812Z,11.05
2018-04-07T21:33:29.617Z,11.09
2018-04-07T21:36:00.426Z,11.03
2018-04-07T21:38:31.217Z,11.03
2018-04-07T21:41:02.016Z,11.02
2018-04-07T21:43:32.832Z,10.98
2018-04-07T21:46:03.674Z,10.91
2018-04-07T21:48:34.517Z,10.91
2018-04-07T21:51:05.342Z,10.85
2018-04-07T21:53:36.149Z,10.86
2018-04-07T21:56:07.049Z,10.83
2018-04-07T21:58:37.930Z,10.83
2018-04-07T22:01:08.743Z,10.74
2018-04-07T22:03:39.519Z,10.85
2018-04-07T22:06:10.354Z,10.88
2018-04-07T22:08:41.171Z,10.89
2018-04-07T22:11:12.044Z,10.86
2018-04-07T22:13:43.525Z,10.80
2018-04-07T22:16:14.366Z,10.76
2018-04-07T22:18:45.165Z,10.76
2018-04-07T22:21:15.985Z,10.83
2018-04-07T22:23:46.765Z,10.87
2018-04-07T22:26:17.625Z,10.82
2018-04-07T22:28:48.453Z,10.81
2018-04-07T22:31:19.329Z,10.73
2018-04-07T22:33:50.138Z,10.70
2018-04-07T22:36:20.969Z,10.72
2018-04-07T22:38:51.781Z,10.74
2018-04-07T22:41:22.618Z,10.56
2018-04-07T22:43:53.413Z,10.76
2018-04-07T22:46:24.213Z,10.62
2018-04-07T22:48:55.130Z,10.73
2018-04-07T22:51:25.997Z,10.64
2018-04-07T22:53:56.800Z,10.44
2018-04-07T22:56:27.618Z,10.35
2018-04-07T22:58:58.407Z,10.31
2018-04-07T23:01:29.226Z,10.20
2018-04-07T23:03:59.998Z,10.23
2018-04-07T23:06:30.798Z,10.12
2018-04-07T23:09:01.611Z,10.13
2018-04-07T23:11:32.389Z,10.08
2018-04-07T23:14:03.195Z,10.03
2018-04-07T23:16:33.979Z,9.93
2018-04-07T23:19:04.802Z,9.77
2018-04-07T23:21:35.605Z,9.78
2018-04-07T23:24:06.387Z,9.68
2018-04-07T23:26:37.168Z,9.59
2018-04-07T23:29:07.960Z,9.48
2018-04-07T23:31:38.792Z,9.42
2018-04-07T23:34:09.575Z,9.42
2018-04-07T23:36:40.401Z,9.48
2018-04-07T23:39:11.200Z,9.46
2018-04-07T23:41:41.982Z,9.51
2018-04-07T23:44:12.781Z,9.50
2018-04-07T23:46:43.597Z,9.37
2018-04-07T23:49:14.384Z,9.34
2018-04-07T23:51:45.229Z,9.29
2018-04-07T23:54:16.021Z,9.17
2018-04-07T23:56:46.866Z,9.20
2018-04-07T23:59:17.685Z,9.12
